Time;durP1;ratioP1;P1;durP2;ratioP2;P2;SDS_P1;SDS_P2;PMS_P1;PMS_P2;Temp;Humidity;BMP_temperature;BMP_pressure;BME280_temperature;BME280_humidity;BME280_pressure;Samples;Min_cycle;Max_cycle;Signal;HPM_P1;HPM_P2
2022/01/13 00:01:17;;;;;;;68.18;29.15;;;4.40;99.90;;;;;;5008987;28;20118;-43
2022/01/13 00:03:43;;;;;;;62.35;27.83;;;4.40;99.90;;;;;;5008883;28;20036;-44
2022/01/13 00:06:08;;;;;;;72.78;31.30;;;4.40;99.90;;;;;;5008776;28;20113;-44
2022/01/13 00:08:34;;;;;;;70.88;29.45;;;4.40;99.90;;;;;;5009272;28;20173;-43
2022/01/13 00:10:59;;;;;;;70.95;28.55;;;4.40;99.90;;;;;;5007816;28;20104;-43
2022/01/13 00:13:31;;;;;;;76.88;33.03;;;4.40;99.90;;;;;;5008213;28;20026;-43
2022/01/13 00:16:42;;;;;;;76.45;31.23;;;4.40;99.90;;;;;;5008818;28;20473;-44
2022/01/13 00:18:51;;;;;;;77.63;31.98;;;4.30;99.90;;;;;;5000875;28;20033;-43
2022/01/13 00:21:31;;;;;;;65.32;28.63;;;4.30;99.90;;;;;;5009230;28;20026;-44
2022/01/13 00:24:00;;;;;;;70.55;27.30;;;4.30;99.90;;;;;;5008491;28;20096;-44
2022/01/13 00:26:28;;;;;;;67.78;27.73;;;4.30;99.90;;;;;;5007928;28;20073;-44
2022/01/13 00:28:55;;;;;;;69.60;29.15;;;4.30;99.90;;;;;;5008212;28;20036;-43
2022/01/13 00:31:26;;;;;;;60.75;26.42;;;4.30;99.90;;;;;;5008628;28;20034;-43
2022/01/13 00:33:54;;;;;;;68.63;28.30;;;4.30;99.90;;;;;;5007650;28;20029;-43
2022/01/13 00:36:22;;;;;;;70.55;28.08;;;4.30;99.90;;;;;;5008948;28;20112;-43
2022/01/13 00:38:48;;;;;;;68.47;28.08;;;4.30;99.90;;;;;;5007132;28;20375;-43
2022/01/13 00:41:14;;;;;;;67.68;27.63;;;4.30;99.90;;;;;;5008913;28;20037;-44
2022/01/13 00:43:47;;;;;;;72.35;28.45;;;4.30;99.90;;;;;;5008481;28;20033;-43
2022/01/13 00:46:24;;;;;;;67.40;28.73;;;4.30;99.90;;;;;;4988511;28;20037;-44
2022/01/13 00:48:51;;;;;;;67.70;28.15;;;4.30;99.90;;;;;;5004330;28;20029;-43
2022/01/13 00:51:17;;;;;;;74.05;29.45;;;4.30;99.90;;;;;;5008713;28;20018;-43
2022/01/13 00:53:43;;;;;;;72.18;29.85;;;4.30;99.90;;;;;;5006849;28;20509;-44
2022/01/13 00:56:15;;;;;;;69.82;28.80;;;4.30;99.90;;;;;;5008400;28;20083;-43
2022/01/13 00:58:41;;;;;;;74.47;28.57;;;4.30;99.90;;;;;;5007888;28;20129;-43
2022/01/13 01:01:07;;;;;;;72.38;28.83;;;4.30;99.90;;;;;;5007252;28;20025;-43
2022/01/13 01:03:35;;;;;;;58.95;25.63;;;4.30;99.90;;;;;;5007583;28;20022;-43
2022/01/13 01:06:03;;;;;;;64.43;27.27;;;4.40;99.90;;;;;;5007961;28;20116;-43
2022/01/13 01:08:29;;;;;;;68.90;26.70;;;4.40;99.90;;;;;;5007078;28;20053;-42
2022/01/13 01:10:55;;;;;;;61.13;25.77;;;4.40;99.90;;;;;;5007685;28;20076;-43
2022/01/13 01:13:27;;;;;;;62.83;23.98;;;4.40;99.90;;;;;;5007713;28;20018;-43
2022/01/13 01:15:55;;;;;;;53.25;22.13;;;4.40;99.90;;;;;;4997113;28;20022;-43
2022/01/13 01:23:38;;;;;;;62.95;24.42;;;4.40;99.90;;;;;;5008033;28;20034;-43
2022/01/13 01:26:22;;;;;;;79.40;30.35;;;4.40;99.90;;;;;;5006512;28;20034;-43
2022/01/13 01:28:56;;;;;;;69.95;26.77;;;4.40;99.90;;;;;;5006299;28;20474;-44
2022/01/13 01:31:28;;;;;;;67.15;25.42;;;4.40;99.90;;;;;;4997846;28;20032;-41
2022/01/13 01:36:32;;;;;;;68.32;26.77;;;4.40;99.90;;;;;;4996406;28;20458;-43
2022/01/13 01:39:06;;;;;;;64.63;26.55;;;4.40;99.90;;;;;;5007261;28;20033;-43
2022/01/13 01:41:35;;;;;;;56.00;23.20;;;4.40;99.90;;;;;;5007120;28;20611;-42
2022/01/13 01:44:12;;;;;;;50.97;21.35;;;4.50;99.90;;;;;;5006743;28;20022;-43
2022/01/13 01:46:40;;;;;;;46.38;21.98;;;4.40;99.90;;;;;;5006977;28;20042;-43
2022/01/13 01:49:17;;;;;;;63.97;24.48;;;4.40;99.90;;;;;;5006473;28;20706;-43
2022/01/13 01:51:44;;;;;;;56.05;24.30;;;4.40;99.90;;;;;;5004608;28;20025;-44
2022/01/13 01:54:11;;;;;;;53.35;23.73;;;4.40;99.90;;;;;;5006625;28;20056;-43
2022/01/13 01:56:37;;;;;;;56.05;22.67;;;4.40;99.90;;;;;;5006570;28;20068;-44
2022/01/13 01:59:12;;;;;;;65.88;24.38;;;4.40;99.90;;;;;;5007317;28;20049;-42
2022/01/13 02:01:38;;;;;;;49.58;21.20;;;4.40;99.90;;;;;;5007139;28;20032;-44
2022/01/13 02:04:04;;;;;;;50.60;20.58;;;4.40;99.90;;;;;;5005706;28;20045;-43
2022/01/13 02:06:30;;;;;;;46.60;20.42;;;4.40;99.90;;;;;;5006547;28;20044;-44
2022/01/13 02:08:58;;;;;;;49.35;20.45;;;4.40;99.90;;;;;;5007333;28;20053;-43
2022/01/13 02:11:25;;;;;;;47.70;20.48;;;4.40;99.90;;;;;;5006312;28;20032;-43
2022/01/13 02:13:54;;;;;;;44.10;20.67;;;4.40;99.90;;;;;;5007262;28;20025;-43
2022/01/13 02:16:44;;;;;;;47.58;19.65;;;4.40;99.90;;;;;;5006780;28;20041;-43
2022/01/13 02:19:10;;;;;;;49.63;20.67;;;4.40;99.90;;;;;;5006613;28;20030;-42
2022/01/13 02:21:36;;;;;;;51.85;21.77;;;4.40;99.90;;;;;;5006721;28;20029;-43
2022/01/13 02:24:01;;;;;;;55.78;21.27;;;4.40;99.90;;;;;;5006162;28;20041;-43
2022/01/13 02:26:28;;;;;;;58.60;22.70;;;4.40;99.90;;;;;;5006708;28;20029;-40
2022/01/13 02:28:54;;;;;;;67.47;22.10;;;4.40;99.90;;;;;;5006451;28;20123;-44
2022/01/13 02:31:21;;;;;;;58.55;22.77;;;4.40;99.90;;;;;;5006681;28;20072;-43
2022/01/13 02:33:46;;;;;;;46.28;20.85;;;4.40;99.90;;;;;;5006637;28;20057;-43
2022/01/13 02:36:16;;;;;;;46.25;21.45;;;4.40;99.90;;;;;;5006857;28;20446;-43
2022/01/13 02:38:42;;;;;;;55.42;22.45;;;4.40;99.90;;;;;;5009742;28;20083;-43
2022/01/13 02:41:07;;;;;;;45.42;21.45;;;4.40;99.90;;;;;;5010098;28;20025;-43
2022/01/13 02:43:35;;;;;;;58.28;24.67;;;4.40;99.90;;;;;;5010175;28;20025;-43
2022/01/13 02:46:28;;;;;;;48.80;22.85;;;4.40;99.90;;;;;;5009690;28;20083;-43
2022/01/13 02:48:54;;;;;;;60.00;23.42;;;4.40;99.90;;;;;;4999889;28;20073;-43
2022/01/13 02:51:20;;;;;;;49.13;21.80;;;4.40;99.90;;;;;;5010224;28;20061;-43
2022/01/13 02:53:46;;;;;;;39.90;19.40;;;4.30;99.90;;;;;;5009025;28;20041;-43
2022/01/13 02:56:11;;;;;;;45.42;20.70;;;4.30;99.90;;;;;;5010629;28;20026;-43
2022/01/13 02:58:37;;;;;;;44.85;21.17;;;4.30;99.90;;;;;;5010373;28;20014;-43
2022/01/13 03:01:04;;;;;;;48.20;21.77;;;4.30;99.90;;;;;;5009803;28;20377;-42
2022/01/13 03:03:31;;;;;;;41.92;20.00;;;4.30;99.90;;;;;;5009888;28;20041;-42
2022/01/13 03:05:56;;;;;;;41.22;18.50;;;4.30;99.90;;;;;;5010141;28;20034;-42
2022/01/13 03:08:23;;;;;;;39.83;17.80;;;4.30;99.90;;;;;;5009870;28;20478;-43
2022/01/13 03:10:49;;;;;;;37.60;17.58;;;4.30;99.90;;;;;;5010210;28;20068;-43
2022/01/13 03:13:17;;;;;;;35.35;16.77;;;4.30;99.90;;;;;;5009864;28;20057;-44
2022/01/13 03:15:42;;;;;;;33.85;17.60;;;4.30;99.90;;;;;;5009966;28;20068;-44
2022/01/13 03:18:08;;;;;;;41.50;18.60;;;4.30;99.90;;;;;;5009506;28;20058;-44
2022/01/13 03:20:33;;;;;;;33.70;17.17;;;4.30;99.90;;;;;;5009432;28;20104;-42
2022/01/13 03:22:59;;;;;;;45.05;17.65;;;4.30;99.90;;;;;;5009634;28;20121;-43
2022/01/13 03:25:24;;;;;;;32.30;15.55;;;4.30;99.90;;;;;;5010009;28;20038;-42
2022/01/13 03:28:05;;;;;;;37.45;16.77;;;4.30;99.90;;;;;;5008718;28;20033;-44
2022/01/13 03:30:32;;;;;;;34.38;15.38;;;4.30;99.90;;;;;;5000719;28;20026;-43
2022/01/13 03:32:59;;;;;;;37.58;15.52;;;4.30;99.90;;;;;;5009629;28;20109;-42
2022/01/13 03:35:24;;;;;;;38.08;17.00;;;4.30;99.90;;;;;;5009167;28;20042;-43
2022/01/13 03:37:50;;;;;;;36.00;15.35;;;4.40;99.90;;;;;;5009423;28;20104;-43
2022/01/13 03:40:16;;;;;;;42.70;16.55;;;4.40;99.90;;;;;;5009232;28;20026;-42
2022/01/13 03:42:41;;;;;;;37.95;16.05;;;4.40;99.90;;;;;;5009502;28;20536;-43
2022/01/13 03:45:07;;;;;;;32.33;16.25;;;4.40;99.90;;;;;;5009355;28;20018;-43
2022/01/13 03:47:33;;;;;;;34.85;14.77;;;4.40;99.90;;;;;;5009145;28;20100;-42
2022/01/13 03:49:59;;;;;;;41.78;16.40;;;4.40;99.90;;;;;;5007941;28;20025;-44
2022/01/13 03:52:24;;;;;;;31.27;16.83;;;4.40;99.90;;;;;;5008988;28;20084;-43
2022/01/13 03:55:31;;;;;;;43.30;18.40;;;4.30;99.90;;;;;;5007785;28;20104;-44
2022/01/13 03:58:18;;;;;;;51.00;20.05;;;4.30;99.90;;;;;;4989886;28;20034;-42
2022/01/13 04:01:17;;;;;;;36.65;17.27;;;4.30;99.90;;;;;;5007825;28;20021;-43
2022/01/13 04:03:44;;;;;;;34.03;16.65;;;4.30;99.90;;;;;;5008467;28;20057;-43
2022/01/13 04:06:16;;;;;;;39.70;18.90;;;4.20;99.90;;;;;;5008538;28;20075;-43
2022/01/13 04:08:42;;;;;;;39.33;18.17;;;4.20;99.90;;;;;;5009283;28;20092;-44
2022/01/13 04:11:14;;;;;;;42.00;18.92;;;4.20;99.90;;;;;;5008153;28;20064;-43
2022/01/13 04:13:50;;;;;;;35.28;17.77;;;4.20;99.90;;;;;;5008866;28;20117;-43
2022/01/13 04:16:27;;;;;;;37.75;18.35;;;4.20;99.90;;;;;;5007992;28;20028;-44
2022/01/13 04:18:55;;;;;;;47.47;21.65;;;4.20;99.90;;;;;;5008736;28;20030;-44
2022/01/13 04:21:24;;;;;;;43.67;19.13;;;4.20;99.90;;;;;;5008729;28;20025;-42
2022/01/13 04:23:56;;;;;;;38.30;18.85;;;4.10;99.90;;;;;;5008231;28;20025;-43
2022/01/13 04:26:27;;;;;;;37.92;17.77;;;4.10;99.90;;;;;;5008703;28;20121;-44
2022/01/13 04:29:02;;;;;;;37.58;18.63;;;4.10;99.90;;;;;;5008695;28;20058;-43
2022/01/13 04:31:28;;;;;;;54.78;21.00;;;4.20;99.90;;;;;;5007574;28;20026;-42
2022/01/13 04:33:53;;;;;;;48.42;19.98;;;4.10;99.90;;;;;;5008953;28;20038;-43
2022/01/13 04:36:19;;;;;;;43.83;20.15;;;4.10;99.90;;;;;;5008467;28;20030;-44
2022/01/13 04:38:47;;;;;;;53.13;19.65;;;4.10;99.90;;;;;;5007785;28;20217;-42
2022/01/13 04:41:22;;;;;;;40.83;20.23;;;4.10;99.90;;;;;;5008247;28;20099;-44
2022/01/13 04:43:47;;;;;;;41.47;21.30;;;4.10;99.90;;;;;;5008171;28;20425;-44
2022/01/13 04:46:13;;;;;;;42.83;20.45;;;4.10;99.90;;;;;;5007991;28;20448;-44
2022/01/13 04:48:38;;;;;;;43.42;19.90;;;4.00;99.90;;;;;;5008152;28;20048;-42
2022/01/13 04:51:04;;;;;;;34.88;18.00;;;4.00;99.90;;;;;;5007976;28;20049;-43
2022/01/13 04:53:29;;;;;;;45.08;18.42;;;4.10;99.90;;;;;;5007541;28;20493;-42
2022/01/13 04:55:58;;;;;;;44.03;20.25;;;4.00;99.90;;;;;;5007830;28;20508;-42
2022/01/13 04:58:23;;;;;;;37.67;18.75;;;4.00;99.90;;;;;;5007952;28;20022;-43
2022/01/13 05:00:49;;;;;;;42.17;19.35;;;4.00;99.90;;;;;;5007495;28;20454;-43
2022/01/13 05:03:15;;;;;;;43.08;20.85;;;4.00;99.90;;;;;;5008264;28;20030;-43
2022/01/13 05:05:40;;;;;;;57.85;20.67;;;4.00;99.90;;;;;;5007443;28;20493;-43
2022/01/13 05:08:06;;;;;;;43.03;18.92;;;4.00;99.90;;;;;;5007392;28;20032;-43
2022/01/13 05:10:32;;;;;;;48.65;18.02;;;4.00;99.90;;;;;;5007695;28;20018;-43
2022/01/13 05:12:58;;;;;;;39.83;19.75;;;4.00;99.90;;;;;;5006952;28;20036;-43
2022/01/13 05:15:26;;;;;;;45.15;18.83;;;4.00;99.90;;;;;;5007776;28;20818;-43
2022/01/13 05:18:10;;;;;;;46.90;18.88;;;4.00;99.90;;;;;;5006960;28;20105;-42
2022/01/13 05:20:41;;;;;;;50.20;18.20;;;4.00;99.90;;;;;;5007128;28;20033;-43
2022/01/13 05:23:08;;;;;;;38.35;18.17;;;4.00;99.90;;;;;;5007498;28;20104;-43
2022/01/13 05:25:34;;;;;;;46.17;17.73;;;4.00;99.90;;;;;;5007755;28;20033;-42
2022/01/13 05:28:00;;;;;;;49.58;18.02;;;4.00;99.90;;;;;;5006810;28;20054;-43
2022/01/13 05:30:25;;;;;;;51.05;18.90;;;4.00;99.90;;;;;;5007324;28;20033;-42
2022/01/13 05:32:51;;;;;;;35.92;17.95;;;4.00;99.90;;;;;;5007193;28;20026;-43
2022/01/13 05:35:16;;;;;;;33.65;18.23;;;4.00;99.90;;;;;;5006909;28;20033;-42
2022/01/13 05:37:43;;;;;;;37.30;18.23;;;4.00;99.90;;;;;;5007511;28;20069;-42
2022/01/13 05:40:11;;;;;;;44.65;20.00;;;4.00;99.90;;;;;;5007295;28;20029;-42
2022/01/13 05:42:36;;;;;;;36.78;18.13;;;4.00;99.90;;;;;;5005965;28;20022;-44
2022/01/13 05:45:13;;;;;;;41.20;17.88;;;4.00;99.90;;;;;;5007466;28;20470;-43
2022/01/13 05:47:40;;;;;;;37.17;16.23;;;4.00;99.90;;;;;;5006766;28;20072;-43
2022/01/13 05:50:07;;;;;;;35.28;15.57;;;4.00;99.90;;;;;;5006834;28;20022;-44
2022/01/13 05:52:35;;;;;;;30.20;15.30;;;4.00;99.90;;;;;;5006943;28;20026;-43
2022/01/13 05:55:02;;;;;;;38.00;16.35;;;4.00;99.90;;;;;;5006101;28;20030;-42
2022/01/13 05:57:27;;;;;;;30.60;15.00;;;4.00;99.90;;;;;;5006851;28;20705;-43
2022/01/13 05:59:59;;;;;;;30.90;15.23;;;4.00;99.90;;;;;;5007498;28;20053;-42
2022/01/13 06:02:25;;;;;;;33.85;16.65;;;4.00;99.90;;;;;;5006467;28;20060;-44
2022/01/13 06:04:50;;;;;;;39.78;18.33;;;4.00;99.90;;;;;;5006773;28;20474;-42
2022/01/13 06:07:17;;;;;;;39.75;17.15;;;4.00;99.90;;;;;;5007393;28;20038;-43
2022/01/13 06:09:43;;;;;;;37.67;18.23;;;4.00;99.90;;;;;;5006205;28;20026;-44
2022/01/13 06:12:09;;;;;;;32.58;17.63;;;4.00;99.90;;;;;;5009305;28;20069;-43
2022/01/13 06:14:35;;;;;;;33.08;18.30;;;4.00;99.90;;;;;;5013440;28;20033;-43
2022/01/13 06:17:00;;;;;;;48.15;18.95;;;4.00;99.90;;;;;;5012731;28;20038;-43
2022/01/13 06:19:26;;;;;;;43.03;19.20;;;3.90;99.90;;;;;;5012934;28;20091;-42
2022/01/13 06:21:52;;;;;;;40.78;18.60;;;3.90;99.90;;;;;;5013364;28;20076;-43
2022/01/13 06:24:17;;;;;;;38.30;17.83;;;3.90;99.90;;;;;;5012994;28;20053;-44
2022/01/13 06:26:43;;;;;;;37.15;18.25;;;4.00;99.90;;;;;;5013367;28;20064;-43
2022/01/13 06:29:28;;;;;;;43.25;18.92;;;3.90;99.90;;;;;;5013447;28;20432;-42
2022/01/13 06:31:57;;;;;;;33.30;17.35;;;3.90;99.90;;;;;;5012523;28;20030;-44
2022/01/13 06:34:23;;;;;;;38.10;16.35;;;3.90;99.90;;;;;;5013609;28;20381;-43
2022/01/13 06:36:48;;;;;;;35.67;16.27;;;4.00;99.90;;;;;;5013362;28;20090;-43
2022/01/13 06:39:14;;;;;;;30.02;16.27;;;4.00;99.90;;;;;;5013189;28;20040;-42
2022/01/13 06:41:40;;;;;;;30.63;15.85;;;4.00;99.90;;;;;;5013163;28;20815;-42
2022/01/13 06:44:06;;;;;;;38.00;18.13;;;4.00;99.90;;;;;;5013219;28;21573;-44
2022/01/13 06:46:32;;;;;;;39.38;18.05;;;4.00;99.90;;;;;;5012730;28;20030;-43
2022/01/13 06:48:57;;;;;;;31.67;17.08;;;4.00;99.90;;;;;;5013817;28;20508;-42
2022/01/13 06:51:23;;;;;;;37.63;16.58;;;3.90;99.90;;;;;;5012287;28;20548;-43
2022/01/13 06:53:48;;;;;;;29.90;16.17;;;3.90;99.90;;;;;;5010747;28;20046;-43
2022/01/13 06:56:14;;;;;;;43.38;17.48;;;4.00;99.90;;;;;;5009241;28;20041;-44
2022/01/13 06:58:43;;;;;;;38.65;18.17;;;4.00;99.90;;;;;;5008929;28;20034;-43
2022/01/13 07:01:09;;;;;;;39.75;17.52;;;3.90;99.90;;;;;;5012102;28;20115;-43
2022/01/13 07:03:36;;;;;;;40.10;17.63;;;3.90;99.90;;;;;;5012105;28;20061;-43
2022/01/13 07:06:01;;;;;;;35.33;17.23;;;3.90;99.90;;;;;;5011879;28;20036;-42
2022/01/13 07:08:27;;;;;;;51.00;16.40;;;3.90;99.90;;;;;;5011553;28;20041;-43
2022/01/13 07:10:52;;;;;;;33.53;15.80;;;3.90;99.90;;;;;;5011578;28;20033;-43
2022/01/13 07:13:18;;;;;;;26.45;14.25;;;4.00;99.90;;;;;;5012323;28;20037;-42
2022/01/13 07:15:45;;;;;;;34.53;16.77;;;4.00;99.90;;;;;;5012201;28;20096;-44
2022/01/13 07:18:11;;;;;;;31.40;15.48;;;4.00;99.90;;;;;;5012861;28;20028;-42
2022/01/13 07:20:37;;;;;;;33.20;15.80;;;4.00;99.90;;;;;;5012123;28;20448;-43
2022/01/13 07:23:04;;;;;;;34.97;16.35;;;4.00;99.90;;;;;;5011867;28;20030;-43
2022/01/13 07:25:29;;;;;;;35.15;16.45;;;4.00;99.90;;;;;;5007678;28;20108;-42
2022/01/13 07:27:55;;;;;;;39.67;15.55;;;4.00;99.90;;;;;;5009053;28;20637;-43
2022/01/13 07:30:20;;;;;;;33.45;16.27;;;4.00;99.90;;;;;;5009885;28;20032;-43
2022/01/13 07:32:46;;;;;;;32.25;15.77;;;4.00;99.90;;;;;;5008654;28;20033;-43
2022/01/13 07:35:12;;;;;;;26.98;14.25;;;4.00;99.90;;;;;;5010047;28;20030;-45
2022/01/13 07:37:39;;;;;;;29.55;14.30;;;4.00;99.90;;;;;;5009368;28;20021;-43
2022/01/13 07:40:13;;;;;;;41.65;16.88;;;4.00;99.90;;;;;;5009566;28;20037;-43
2022/01/13 07:42:41;;;;;;;32.95;14.27;;;4.10;99.90;;;;;;5008884;28;20092;-43
2022/01/13 07:45:11;;;;;;;32.15;15.32;;;4.00;99.90;;;;;;4989756;28;20034;-43
2022/01/13 07:47:37;;;;;;;32.15;15.20;;;4.10;99.90;;;;;;5002458;28;20038;-43
2022/01/13 07:50:04;;;;;;;24.13;14.05;;;4.00;99.90;;;;;;5009268;28;20045;-43
2022/01/13 07:52:33;;;;;;;25.00;14.07;;;4.00;99.90;;;;;;5008885;28;20529;-43
2022/01/13 07:54:58;;;;;;;23.20;13.80;;;4.00;99.90;;;;;;5008785;28;20033;-44
2022/01/13 07:57:27;;;;;;;24.88;13.55;;;4.00;99.90;;;;;;5009125;28;20022;-43
2022/01/13 07:59:53;;;;;;;32.03;14.50;;;4.00;99.90;;;;;;5009259;28;20029;-43
2022/01/13 08:02:19;;;;;;;26.40;13.30;;;4.00;99.90;;;;;;5008390;28;20026;-44
2022/01/13 08:04:45;;;;;;;25.02;13.73;;;4.00;99.90;;;;;;5009228;28;20026;-43
2022/01/13 08:07:10;;;;;;;25.50;13.50;;;4.00;99.90;;;;;;5009140;28;20650;-43
2022/01/13 08:09:36;;;;;;;32.17;13.95;;;4.10;99.90;;;;;;5007943;28;20562;-43
2022/01/13 08:12:02;;;;;;;29.88;13.90;;;4.00;99.90;;;;;;5008842;28;20118;-43
2022/01/13 08:14:27;;;;;;;22.58;13.45;;;4.10;99.90;;;;;;5008915;28;20429;-43
2022/01/13 08:16:57;;;;;;;29.48;14.57;;;4.00;99.90;;;;;;5008508;28;20080;-43
2022/01/13 08:22:06;;;;;;;22.13;13.18;;;4.10;99.90;;;;;;5008337;28;20180;-43
2022/01/13 08:24:32;;;;;;;22.60;13.02;;;4.10;99.90;;;;;;5007081;28;20112;-43
2022/01/13 08:26:58;;;;;;;29.92;13.20;;;4.10;99.90;;;;;;5008911;28;20390;-44
2022/01/13 08:29:23;;;;;;;27.50;14.20;;;4.10;99.90;;;;;;5008083;28;20022;-42
2022/01/13 08:31:49;;;;;;;27.20;12.48;;;4.10;99.90;;;;;;5008278;28;20037;-42
2022/01/13 08:34:16;;;;;;;22.30;12.07;;;4.10;99.90;;;;;;5008110;28;20022;-42
2022/01/13 08:36:42;;;;;;;24.40;11.90;;;4.10;99.90;;;;;;5008146;28;20018;-43
2022/01/13 08:39:08;;;;;;;28.00;13.40;;;4.20;99.90;;;;;;5008030;28;20025;-42
2022/01/13 08:41:34;;;;;;;21.35;11.27;;;4.20;99.90;;;;;;5008289;28;20041;-43
2022/01/13 08:43:59;;;;;;;18.45;10.55;;;4.20;99.90;;;;;;5007347;28;20029;-42
2022/01/13 08:46:26;;;;;;;22.33;11.35;;;4.20;99.90;;;;;;5008136;28;20029;-43
2022/01/13 08:48:52;;;;;;;27.40;11.95;;;4.20;99.90;;;;;;5007896;28;20101;-43
2022/01/13 08:51:18;;;;;;;28.75;11.68;;;4.20;99.90;;;;;;5007872;28;20462;-42
2022/01/13 08:53:47;;;;;;;20.70;10.70;;;4.20;99.90;;;;;;5008371;28;20064;-43
2022/01/13 08:56:14;;;;;;;21.42;11.02;;;4.20;99.90;;;;;;4997535;28;20025;-43
2022/01/13 08:58:40;;;;;;;21.80;11.55;;;4.30;99.90;;;;;;5007309;28;20030;-43
2022/01/13 09:01:07;;;;;;;18.88;11.15;;;4.30;99.90;;;;;;5007611;28;20497;-43
2022/01/13 09:03:35;;;;;;;26.48;11.52;;;4.30;99.90;;;;;;5007792;28;20030;-43
2022/01/13 09:06:02;;;;;;;20.80;11.88;;;4.30;99.90;;;;;;5007569;28;20013;-42
2022/01/13 09:08:27;;;;;;;19.60;11.48;;;4.30;99.90;;;;;;5008464;28;20030;-43
2022/01/13 09:10:53;;;;;;;20.77;12.27;;;4.30;99.90;;;;;;5006888;28;20080;-42
2022/01/13 09:13:19;;;;;;;27.45;13.00;;;4.30;99.90;;;;;;5007781;28;20061;-43
2022/01/13 09:15:51;;;;;;;20.25;11.38;;;4.30;99.90;;;;;;5006221;28;20022;-43
2022/01/13 09:18:30;;;;;;;20.90;11.90;;;4.30;99.90;;;;;;4988233;28;20029;-43
2022/01/13 09:20:56;;;;;;;20.77;12.23;;;4.30;99.90;;;;;;5003338;28;20038;-43
2022/01/13 09:23:22;;;;;;;23.63;12.52;;;4.30;99.90;;;;;;5007630;28;20034;-43
2022/01/13 09:25:47;;;;;;;21.38;11.73;;;4.30;99.90;;;;;;5006799;28;20025;-43
2022/01/13 09:28:13;;;;;;;19.83;11.15;;;4.20;99.90;;;;;;5007397;28;20040;-42
2022/01/13 09:30:39;;;;;;;24.42;11.80;;;4.30;99.90;;;;;;5007693;28;20065;-43
2022/01/13 09:33:05;;;;;;;20.17;12.10;;;4.30;99.90;;;;;;5006594;28;20036;-44
2022/01/13 09:35:31;;;;;;;23.70;12.35;;;4.30;99.90;;;;;;5007206;28;20025;-43
2022/01/13 09:38:01;;;;;;;18.65;11.13;;;4.30;99.90;;;;;;5007518;28;20389;-42
2022/01/13 09:40:27;;;;;;;23.00;12.00;;;4.30;99.90;;;;;;5007142;28;20025;-43
2022/01/13 09:42:54;;;;;;;18.38;10.77;;;4.30;99.90;;;;;;5007290;28;20025;-42
2022/01/13 09:45:23;;;;;;;20.83;11.75;;;4.40;99.90;;;;;;5007041;28;20025;-44
2022/01/13 09:47:51;;;;;;;21.15;11.27;;;4.40;99.90;;;;;;5005899;28;20548;-44
2022/01/13 09:50:20;;;;;;;21.42;11.60;;;4.30;99.90;;;;;;5007746;28;20025;-43
2022/01/13 09:52:46;;;;;;;22.48;12.70;;;4.40;99.90;;;;;;5005836;28;20125;-43
2022/01/13 09:55:14;;;;;;;23.30;11.32;;;4.40;99.90;;;;;;5007061;28;20591;-44
2022/01/13 09:57:46;;;;;;;20.52;11.35;;;4.40;99.90;;;;;;5005695;28;20076;-43
2022/01/13 10:00:15;;;;;;;16.48;9.73;;;4.40;99.90;;;;;;5007037;28;20026;-43
2022/01/13 10:02:41;;;;;;;22.77;11.13;;;4.50;99.90;;;;;;4991726;28;20030;-43
2022/01/13 10:05:07;;;;;;;24.17;11.65;;;4.50;99.90;;;;;;4993590;28;20045;-43
2022/01/13 10:07:41;;;;;;;20.20;11.25;;;4.50;99.90;;;;;;4995126;28;20068;-42
2022/01/13 10:10:15;;;;;;;22.77;12.00;;;4.50;99.90;;;;;;5006065;28;20047;-42
2022/01/13 10:12:46;;;;;;;18.58;9.75;;;4.50;99.90;;;;;;5006031;28;20029;-43
2022/01/13 10:18:00;;;;;;;23.17;11.85;;;4.60;99.90;;;;;;5003767;28;20036;-43
2022/01/13 10:20:26;;;;;;;22.70;12.05;;;4.60;99.90;;;;;;5006636;28;20026;-43
2022/01/13 10:22:53;;;;;;;23.63;12.70;;;4.60;99.90;;;;;;5005115;28;20025;-43
2022/01/13 10:25:33;;;;;;;22.60;13.40;;;4.60;99.90;;;;;;5006650;28;20693;-44
2022/01/13 10:28:14;;;;;;;21.88;13.02;;;4.60;99.90;;;;;;5006017;28;20123;-43
2022/01/13 10:30:45;;;;;;;20.92;12.55;;;4.60;99.90;;;;;;4986292;28;20031;-43
2022/01/13 10:33:30;;;;;;;21.90;11.32;;;4.60;99.90;;;;;;5000489;28;20480;-42
2022/01/13 10:36:09;;;;;;;20.33;11.45;;;4.60;99.90;;;;;;4986365;28;20038;-43
2022/01/13 10:38:53;;;;;;;19.48;11.40;;;4.60;99.90;;;;;;5002674;28;20352;-43
2022/01/13 10:41:49;;;;;;;22.70;11.75;;;4.60;99.90;;;;;;5005921;28;20037;-43
2022/01/13 10:44:22;;;;;;;22.38;12.75;;;4.60;99.90;;;;;;5005258;28;20014;-44
2022/01/13 10:47:04;;;;;;;24.30;13.10;;;4.60;99.90;;;;;;5006222;28;20030;-43
2022/01/13 10:49:40;;;;;;;21.67;12.18;;;4.60;99.90;;;;;;5005706;28;20104;-42
2022/01/13 10:52:18;;;;;;;23.27;12.57;;;4.60;99.90;;;;;;5005045;28;20510;-42
2022/01/13 10:54:43;;;;;;;25.67;12.35;;;4.60;99.90;;;;;;5002212;28;20512;-43
2022/01/13 10:57:21;;;;;;;20.67;12.85;;;4.60;99.90;;;;;;5005939;28;20112;-42
2022/01/13 10:59:46;;;;;;;22.90;13.07;;;4.70;99.90;;;;;;5006533;28;20029;-44
2022/01/13 11:02:12;;;;;;;27.00;13.85;;;4.70;99.90;;;;;;5009381;28;20034;-43
2022/01/13 11:04:38;;;;;;;27.60;12.85;;;4.60;99.90;;;;;;5008933;28;20034;-43
2022/01/13 11:07:24;;;;;;;24.88;13.68;;;4.70;99.90;;;;;;5009515;28;20062;-43
2022/01/13 11:10:02;;;;;;;28.58;13.35;;;4.70;99.90;;;;;;5008908;28;20030;-42
2022/01/13 11:12:31;;;;;;;21.48;12.73;;;4.70;99.90;;;;;;5009130;28;20025;-42
2022/01/13 11:14:59;;;;;;;24.90;12.30;;;4.80;99.90;;;;;;5008990;28;20022;-44
2022/01/13 11:17:25;;;;;;;22.60;12.40;;;4.80;99.90;;;;;;5008876;28;20394;-44
2022/01/13 11:19:52;;;;;;;32.08;13.40;;;4.90;99.90;;;;;;5009046;28;20022;-43
2022/01/13 11:22:20;;;;;;;21.38;12.02;;;4.90;99.90;;;;;;5009148;28;20044;-43
2022/01/13 11:24:46;;;;;;;23.80;12.88;;;4.90;99.90;;;;;;5007975;28;20038;-43
2022/01/13 11:27:13;;;;;;;24.90;14.45;;;4.90;99.90;;;;;;5003009;28;20190;-43
2022/01/13 11:29:39;;;;;;;25.00;13.88;;;4.90;99.90;;;;;;5000170;28;20022;-43
2022/01/13 11:32:07;;;;;;;25.25;14.90;;;4.90;99.90;;;;;;5008388;28;20400;-43
2022/01/13 11:34:33;;;;;;;27.70;15.45;;;4.90;99.90;;;;;;5008480;28;20164;-43
2022/01/13 11:36:59;;;;;;;24.65;15.43;;;4.90;99.90;;;;;;5008505;28;20381;-43
2022/01/13 11:39:42;;;;;;;28.42;15.02;;;4.90;99.90;;;;;;5008721;28;20037;-42
2022/01/13 11:42:09;;;;;;;;;;;4.90;99.90;;;;;;5008890;28;20041;-43
2022/01/13 11:44:36;;;;;;;25.73;13.77;;;4.90;99.90;;;;;;5008454;28;19910;-43
2022/01/13 11:47:08;;;;;;;24.85;14.68;;;4.90;99.90;;;;;;5008026;28;20030;-42
2022/01/13 11:49:56;;;;;;;28.48;14.27;;;4.90;99.90;;;;;;5007933;28;20038;-43
2022/01/13 11:52:51;;;;;;;26.80;14.60;;;4.90;99.90;;;;;;5007061;28;20030;-44
2022/01/13 11:55:27;;;;;;;28.00;14.88;;;4.90;99.90;;;;;;5006947;28;20042;-42
2022/01/13 11:58:11;;;;;;;25.45;13.55;;;4.80;99.90;;;;;;5008335;28;20048;-43
2022/01/13 12:00:37;;;;;;;25.73;13.65;;;4.80;99.90;;;;;;5004409;28;20026;-43
2022/01/13 12:03:22;;;;;;;21.13;12.25;;;4.80;99.90;;;;;;5006377;28;20022;-43
2022/01/13 12:05:48;;;;;;;29.75;13.98;;;4.80;99.90;;;;;;5007827;28;20029;-44
2022/01/13 12:08:39;;;;;;;24.13;13.38;;;4.80;99.90;;;;;;5008001;28;20041;-43
2022/01/13 12:11:06;;;;;;;22.40;14.35;;;4.80;99.90;;;;;;5007676;28;20030;-43
2022/01/13 12:13:38;;;;;;;25.38;14.43;;;4.80;99.90;;;;;;5007440;28;20088;-43
2022/01/13 12:16:06;;;;;;;27.33;14.70;;;4.70;99.90;;;;;;5007115;28;20397;-42
2022/01/13 12:18:57;;;;;;;23.80;13.70;;;4.70;99.90;;;;;;5007860;28;20033;-43
2022/01/13 12:21:36;;;;;;;27.45;13.82;;;4.70;99.90;;;;;;5007717;28;20363;-43
2022/01/13 12:24:07;;;;;;;25.98;14.32;;;4.70;99.90;;;;;;5007755;28;20014;-43
2022/01/13 12:26:32;;;;;;;31.15;14.35;;;4.70;99.90;;;;;;5007144;28;20026;-43
2022/01/13 12:29:12;;;;;;;25.80;14.55;;;4.70;99.90;;;;;;5007247;28;20079;-42
2022/01/13 12:31:50;;;;;;;24.55;13.85;;;4.70;99.90;;;;;;5007997;28;20034;-44
2022/01/13 12:34:43;;;;;;;26.85;13.63;;;4.70;99.90;;;;;;5007900;28;20042;-43
2022/01/13 12:37:12;;;;;;;24.20;14.43;;;4.70;99.90;;;;;;5006940;28;20029;-43
2022/01/13 12:39:46;;;;;;;30.45;15.68;;;4.70;99.90;;;;;;5007704;28;20463;-43
2022/01/13 12:42:24;;;;;;;30.55;16.08;;;4.70;99.90;;;;;;5007458;28;20036;-43
2022/01/13 12:48:01;;;;;;;25.08;13.48;;;4.70;99.90;;;;;;4984585;28;20050;-43
2022/01/13 12:50:30;;;;;;;26.23;14.30;;;4.70;99.90;;;;;;4984216;28;20498;-43
2022/01/13 12:53:07;;;;;;;23.58;14.40;;;4.70;99.90;;;;;;4996580;28;20041;-41
2022/01/13 12:55:34;;;;;;;26.83;14.68;;;4.70;99.90;;;;;;4987783;28;20042;-43
2022/01/13 12:57:59;;;;;;;24.42;13.15;;;4.70;99.90;;;;;;5001693;28;20092;-43
2022/01/13 13:00:25;;;;;;;22.55;13.65;;;4.70;99.90;;;;;;5007163;28;20042;-44
2022/01/13 13:02:58;;;;;;;38.13;13.27;;;4.80;99.90;;;;;;5006737;28;20099;-42
2022/01/13 13:05:40;;;;;;;20.10;12.73;;;4.80;99.90;;;;;;5006657;28;20036;-43